sensor_id;sensor_type;location;lat;lon;timestamp;P1;durP1;ratioP1;P2;durP2;ratioP2
68821;SDS011;55834;50.870;4.606;2023-05-10T00:01:52;5.78;;;3.53;;
68821;SDS011;55834;50.870;4.606;2023-05-10T00:04:17;5.83;;;3.33;;
68821;SDS011;55834;50.870;4.606;2023-05-10T00:06:42;6.10;;;3.90;;
68821;SDS011;55834;50.870;4.606;2023-05-10T00:09:08;10.33;;;4.07;;
68821;SDS011;55834;50.870;4.606;2023-05-10T00:11:33;5.30;;;3.35;;
68821;SDS011;55834;50.870;4.606;2023-05-10T00:13:59;5.70;;;3.13;;
68821;SDS011;55834;50.870;4.606;2023-05-10T00:16:24;10.93;;;4.93;;
68821;SDS011;55834;50.870;4.606;2023-05-10T00:18:50;6.85;;;3.75;;
68821;SDS011;55834;50.870;4.606;2023-05-10T00:21:15;6.77;;;3.97;;
68821;SDS011;55834;50.870;4.606;2023-05-10T00:23:40;4.97;;;3.22;;
68821;SDS011;55834;50.870;4.606;2023-05-10T00:26:06;9.57;;;3.30;;
68821;SDS011;55834;50.870;4.606;2023-05-10T00:28:31;5.97;;;4.07;;
68821;SDS011;55834;50.870;4.606;2023-05-10T00:30:56;6.22;;;4.07;;
68821;SDS011;55834;50.870;4.606;2023-05-10T00:33:22;5.30;;;3.58;;
68821;SDS011;55834;50.870;4.606;2023-05-10T00:35:47;8.05;;;4.90;;
68821;SDS011;55834;50.870;4.606;2023-05-10T00:38:13;6.07;;;3.55;;
68821;SDS011;55834;50.870;4.606;2023-05-10T00:40:39;7.93;;;3.13;;
68821;SDS011;55834;50.870;4.606;2023-05-10T00:43:05;6.10;;;4.00;;
68821;SDS011;55834;50.870;4.606;2023-05-10T00:45:33;10.88;;;4.07;;
68821;SDS011;55834;50.870;4.606;2023-05-10T00:48:01;6.13;;;3.88;;
68821;SDS011;55834;50.870;4.606;2023-05-10T00:50:28;7.93;;;3.65;;
68821;SDS011;55834;50.870;4.606;2023-05-10T00:55:21;8.15;;;3.58;;
68821;SDS011;55834;50.870;4.606;2023-05-10T00:57:47;7.93;;;5.10;;
68821;SDS011;55834;50.870;4.606;2023-05-10T01:00:13;10.48;;;4.50;;
68821;SDS011;55834;50.870;4.606;2023-05-10T01:02:44;6.82;;;4.63;;
68821;SDS011;55834;50.870;4.606;2023-05-10T01:05:14;6.15;;;4.25;;
68821;SDS011;55834;50.870;4.606;2023-05-10T01:07:40;7.25;;;4.57;;
68821;SDS011;55834;50.870;4.606;2023-05-10T01:10:06;8.73;;;4.60;;
68821;SDS011;55834;50.870;4.606;2023-05-10T01:12:33;8.55;;;4.88;;
68821;SDS011;55834;50.870;4.606;2023-05-10T01:15:01;8.05;;;4.90;;
68821;SDS011;55834;50.870;4.606;2023-05-10T01:17:27;6.35;;;4.20;;
68821;SDS011;55834;50.870;4.606;2023-05-10T01:19:53;8.23;;;4.20;;
68821;SDS011;55834;50.870;4.606;2023-05-10T01:22:39;10.80;;;5.20;;
68821;SDS011;55834;50.870;4.606;2023-05-10T01:33:17;7.38;;;5.03;;
68821;SDS011;55834;50.870;4.606;2023-05-10T01:35:51;8.50;;;4.70;;
68821;SDS011;55834;50.870;4.606;2023-05-10T01:38:33;8.40;;;4.93;;
68821;SDS011;55834;50.870;4.606;2023-05-10T01:43:53;8.60;;;5.53;;
68821;SDS011;55834;50.870;4.606;2023-05-10T01:46:33;6.78;;;4.68;;
68821;SDS011;55834;50.870;4.606;2023-05-10T01:49:02;8.85;;;5.13;;
68821;SDS011;55834;50.870;4.606;2023-05-10T01:51:39;7.93;;;4.53;;
68821;SDS011;55834;50.870;4.606;2023-05-10T01:54:14;9.70;;;4.90;;
68821;SDS011;55834;50.870;4.606;2023-05-10T01:56:44;7.68;;;4.97;;
68821;SDS011;55834;50.870;4.606;2023-05-10T01:59:13;7.20;;;5.15;;
68821;SDS011;55834;50.870;4.606;2023-05-10T02:01:41;10.32;;;5.63;;
68821;SDS011;55834;50.870;4.606;2023-05-10T02:06:35;10.68;;;5.38;;
68821;SDS011;55834;50.870;4.606;2023-05-10T02:09:01;12.00;;;6.45;;
68821;SDS011;55834;50.870;4.606;2023-05-10T02:11:28;15.35;;;6.57;;
68821;SDS011;55834;50.870;4.606;2023-05-10T02:13:56;10.43;;;5.68;;
68821;SDS011;55834;50.870;4.606;2023-05-10T02:16:23;12.10;;;6.78;;
68821;SDS011;55834;50.870;4.606;2023-05-10T02:18:51;10.18;;;5.95;;
68821;SDS011;55834;50.870;4.606;2023-05-10T02:21:19;9.40;;;6.38;;
68821;SDS011;55834;50.870;4.606;2023-05-10T02:23:46;8.65;;;4.97;;
68821;SDS011;55834;50.870;4.606;2023-05-10T02:26:15;7.68;;;5.30;;
68821;SDS011;55834;50.870;4.606;2023-05-10T02:28:43;7.55;;;5.00;;
68821;SDS011;55834;50.870;4.606;2023-05-10T02:31:09;9.77;;;5.90;;
68821;SDS011;55834;50.870;4.606;2023-05-10T02:33:35;10.40;;;6.80;;
68821;SDS011;55834;50.870;4.606;2023-05-10T02:36:05;8.02;;;6.00;;
68821;SDS011;55834;50.870;4.606;2023-05-10T02:38:33;12.20;;;6.50;;
68821;SDS011;55834;50.870;4.606;2023-05-10T02:41:00;10.55;;;5.88;;
68821;SDS011;55834;50.870;4.606;2023-05-10T02:43:28;7.55;;;6.15;;
68821;SDS011;55834;50.870;4.606;2023-05-10T02:45:57;9.68;;;5.80;;
68821;SDS011;55834;50.870;4.606;2023-05-10T02:48:22;10.90;;;6.10;;
68821;SDS011;55834;50.870;4.606;2023-05-10T02:50:48;14.77;;;6.50;;
68821;SDS011;55834;50.870;4.606;2023-05-10T02:53:23;10.23;;;6.43;;
68821;SDS011;55834;50.870;4.606;2023-05-10T02:55:57;10.07;;;5.15;;
68821;SDS011;55834;50.870;4.606;2023-05-10T02:58:26;12.10;;;6.82;;
68821;SDS011;55834;50.870;4.606;2023-05-10T03:00:51;12.90;;;5.88;;
68821;SDS011;55834;50.870;4.606;2023-05-10T03:03:17;7.72;;;5.65;;
68821;SDS011;55834;50.870;4.606;2023-05-10T03:05:43;10.25;;;5.30;;
68821;SDS011;55834;50.870;4.606;2023-05-10T03:08:08;7.78;;;6.07;;
68821;SDS011;55834;50.870;4.606;2023-05-10T03:10:37;8.13;;;5.85;;
68821;SDS011;55834;50.870;4.606;2023-05-10T03:18:33;15.05;;;6.20;;
68821;SDS011;55834;50.870;4.606;2023-05-10T03:21:07;10.63;;;4.80;;
68821;SDS011;55834;50.870;4.606;2023-05-10T03:23:41;8.13;;;4.95;;
68821;SDS011;55834;50.870;4.606;2023-05-10T03:26:12;11.55;;;6.25;;
68821;SDS011;55834;50.870;4.606;2023-05-10T03:28:48;7.93;;;5.22;;
68821;SDS011;55834;50.870;4.606;2023-05-10T03:31:15;6.50;;;4.18;;
68821;SDS011;55834;50.870;4.606;2023-05-10T03:33:47;8.32;;;5.07;;
68821;SDS011;55834;50.870;4.606;2023-05-10T03:36:16;12.45;;;5.05;;
68821;SDS011;55834;50.870;4.606;2023-05-10T03:38:41;7.68;;;5.05;;
68821;SDS011;55834;50.870;4.606;2023-05-10T03:41:07;9.70;;;5.25;;
68821;SDS011;55834;50.870;4.606;2023-05-10T03:43:32;7.75;;;5.10;;
68821;SDS011;55834;50.870;4.606;2023-05-10T03:45:58;9.70;;;5.77;;
68821;SDS011;55834;50.870;4.606;2023-05-10T03:48:23;10.23;;;5.47;;
68821;SDS011;55834;50.870;4.606;2023-05-10T03:50:48;10.23;;;5.68;;
68821;SDS011;55834;50.870;4.606;2023-05-10T03:53:17;12.57;;;7.07;;
68821;SDS011;55834;50.870;4.606;2023-05-10T03:55:42;13.50;;;6.77;;
68821;SDS011;55834;50.870;4.606;2023-05-10T03:58:10;14.60;;;8.00;;
68821;SDS011;55834;50.870;4.606;2023-05-10T04:00:36;11.40;;;6.85;;
68821;SDS011;55834;50.870;4.606;2023-05-10T04:03:02;10.73;;;7.10;;
68821;SDS011;55834;50.870;4.606;2023-05-10T04:05:27;11.10;;;6.03;;
68821;SDS011;55834;50.870;4.606;2023-05-10T04:07:52;11.47;;;7.63;;
68821;SDS011;55834;50.870;4.606;2023-05-10T04:10:18;14.03;;;7.47;;
68821;SDS011;55834;50.870;4.606;2023-05-10T04:12:43;14.35;;;8.40;;
68821;SDS011;55834;50.870;4.606;2023-05-10T04:15:09;14.43;;;8.38;;
68821;SDS011;55834;50.870;4.606;2023-05-10T04:17:34;12.75;;;7.43;;
68821;SDS011;55834;50.870;4.606;2023-05-10T04:20:00;15.68;;;8.95;;
68821;SDS011;55834;50.870;4.606;2023-05-10T04:22:25;13.20;;;7.60;;
68821;SDS011;55834;50.870;4.606;2023-05-10T04:24:51;14.05;;;8.70;;
68821;SDS011;55834;50.870;4.606;2023-05-10T04:27:16;17.20;;;9.87;;
68821;SDS011;55834;50.870;4.606;2023-05-10T04:29:42;17.40;;;10.67;;
68821;SDS011;55834;50.870;4.606;2023-05-10T04:32:07;18.90;;;10.38;;
68821;SDS011;55834;50.870;4.606;2023-05-10T04:34:35;15.90;;;9.60;;
68821;SDS011;55834;50.870;4.606;2023-05-10T04:37:00;14.57;;;8.65;;
68821;SDS011;55834;50.870;4.606;2023-05-10T04:39:26;11.40;;;7.17;;
68821;SDS011;55834;50.870;4.606;2023-05-10T04:41:51;14.20;;;7.80;;
68821;SDS011;55834;50.870;4.606;2023-05-10T04:44:17;15.83;;;9.77;;
68821;SDS011;55834;50.870;4.606;2023-05-10T04:46:42;16.03;;;9.37;;
68821;SDS011;55834;50.870;4.606;2023-05-10T04:49:07;14.93;;;8.90;;
68821;SDS011;55834;50.870;4.606;2023-05-10T04:51:33;15.02;;;9.25;;
68821;SDS011;55834;50.870;4.606;2023-05-10T04:53:58;17.42;;;8.75;;
68821;SDS011;55834;50.870;4.606;2023-05-10T04:56:24;14.27;;;8.50;;
68821;SDS011;55834;50.870;4.606;2023-05-10T04:58:49;15.63;;;9.73;;
68821;SDS011;55834;50.870;4.606;2023-05-10T05:01:14;18.13;;;8.95;;
68821;SDS011;55834;50.870;4.606;2023-05-10T05:03:40;15.90;;;8.55;;
68821;SDS011;55834;50.870;4.606;2023-05-10T05:06:05;18.03;;;9.80;;
68821;SDS011;55834;50.870;4.606;2023-05-10T05:08:31;17.33;;;9.10;;
68821;SDS011;55834;50.870;4.606;2023-05-10T05:10:56;16.55;;;9.82;;
68821;SDS011;55834;50.870;4.606;2023-05-10T05:13:22;15.83;;;9.87;;
68821;SDS011;55834;50.870;4.606;2023-05-10T05:15:47;13.57;;;8.32;;
68821;SDS011;55834;50.870;4.606;2023-05-10T05:18:12;20.20;;;10.47;;
68821;SDS011;55834;50.870;4.606;2023-05-10T05:20:38;13.68;;;9.05;;
68821;SDS011;55834;50.870;4.606;2023-05-10T05:23:03;14.17;;;8.53;;
68821;SDS011;55834;50.870;4.606;2023-05-10T05:25:28;13.90;;;9.00;;
68821;SDS011;55834;50.870;4.606;2023-05-10T05:27:54;16.83;;;9.87;;
68821;SDS011;55834;50.870;4.606;2023-05-10T05:30:19;18.23;;;9.23;;
68821;SDS011;55834;50.870;4.606;2023-05-10T05:32:45;17.42;;;10.38;;
68821;SDS011;55834;50.870;4.606;2023-05-10T05:35:12;17.90;;;10.75;;
68821;SDS011;55834;50.870;4.606;2023-05-10T05:37:37;13.18;;;7.20;;
68821;SDS011;55834;50.870;4.606;2023-05-10T05:40:03;17.10;;;9.30;;
68821;SDS011;55834;50.870;4.606;2023-05-10T05:42:29;14.80;;;8.80;;
68821;SDS011;55834;50.870;4.606;2023-05-10T05:44:56;16.42;;;9.52;;
68821;SDS011;55834;50.870;4.606;2023-05-10T05:47:21;18.13;;;9.55;;
68821;SDS011;55834;50.870;4.606;2023-05-10T05:49:46;18.87;;;10.90;;
68821;SDS011;55834;50.870;4.606;2023-05-10T05:52:12;18.55;;;10.30;;
68821;SDS011;55834;50.870;4.606;2023-05-10T05:54:37;14.90;;;8.57;;
68821;SDS011;55834;50.870;4.606;2023-05-10T05:57:03;17.10;;;8.98;;
68821;SDS011;55834;50.870;4.606;2023-05-10T05:59:28;14.90;;;9.40;;
68821;SDS011;55834;50.870;4.606;2023-05-10T06:01:54;14.00;;;9.25;;
68821;SDS011;55834;50.870;4.606;2023-05-10T06:04:19;12.18;;;8.70;;
68821;SDS011;55834;50.870;4.606;2023-05-10T06:06:45;13.75;;;7.63;;
68821;SDS011;55834;50.870;4.606;2023-05-10T06:09:11;13.80;;;9.55;;
68821;SDS011;55834;50.870;4.606;2023-05-10T06:11:36;17.02;;;9.18;;
68821;SDS011;55834;50.870;4.606;2023-05-10T06:14:02;11.10;;;7.15;;
68821;SDS011;55834;50.870;4.606;2023-05-10T06:18:54;16.35;;;9.18;;
68821;SDS011;55834;50.870;4.606;2023-05-10T06:21:20;12.13;;;6.82;;
68821;SDS011;55834;50.870;4.606;2023-05-10T06:23:46;13.50;;;8.13;;
68821;SDS011;55834;50.870;4.606;2023-05-10T06:26:11;13.07;;;8.33;;
68821;SDS011;55834;50.870;4.606;2023-05-10T06:28:37;13.10;;;7.30;;
68821;SDS011;55834;50.870;4.606;2023-05-10T06:31:05;17.27;;;8.63;;
68821;SDS011;55834;50.870;4.606;2023-05-10T06:33:31;16.50;;;9.75;;
68821;SDS011;55834;50.870;4.606;2023-05-10T06:35:57;13.73;;;9.13;;
68821;SDS011;55834;50.870;4.606;2023-05-10T06:38:23;12.53;;;6.90;;
68821;SDS011;55834;50.870;4.606;2023-05-10T06:40:48;10.88;;;7.13;;
68821;SDS011;55834;50.870;4.606;2023-05-10T06:43:14;9.10;;;5.57;;
68821;SDS011;55834;50.870;4.606;2023-05-10T06:45:39;12.40;;;6.90;;
68821;SDS011;55834;50.870;4.606;2023-05-10T06:48:05;13.70;;;6.35;;
68821;SDS011;55834;50.870;4.606;2023-05-10T06:50:31;9.88;;;5.68;;
68821;SDS011;55834;50.870;4.606;2023-05-10T06:52:57;18.63;;;4.85;;
68821;SDS011;55834;50.870;4.606;2023-05-10T06:55:23;5.18;;;3.28;;
68821;SDS011;55834;50.870;4.606;2023-05-10T06:57:48;5.75;;;3.03;;
68821;SDS011;55834;50.870;4.606;2023-05-10T07:00:14;7.85;;;3.05;;
68821;SDS011;55834;50.870;4.606;2023-05-10T07:02:39;4.57;;;2.78;;
68821;SDS011;55834;50.870;4.606;2023-05-10T07:05:05;3.65;;;2.63;;
68821;SDS011;55834;50.870;4.606;2023-05-10T07:07:31;8.43;;;3.40;;
68821;SDS011;55834;50.870;4.606;2023-05-10T07:09:56;3.10;;;2.80;;
68821;SDS011;55834;50.870;4.606;2023-05-10T07:12:22;3.78;;;2.67;;
68821;SDS011;55834;50.870;4.606;2023-05-10T07:14:48;5.72;;;3.10;;
68821;SDS011;55834;50.870;4.606;2023-05-10T07:17:14;5.13;;;3.40;;
68821;SDS011;55834;50.870;4.606;2023-05-10T07:19:40;4.07;;;2.70;;
68821;SDS011;55834;50.870;4.606;2023-05-10T07:22:05;3.38;;;2.67;;
68821;SDS011;55834;50.870;4.606;2023-05-10T07:24:31;2.88;;;2.58;;
68821;SDS011;55834;50.870;4.606;2023-05-10T07:26:57;4.55;;;2.13;;
68821;SDS011;55834;50.870;4.606;2023-05-10T07:29:22;2.73;;;2.53;;
68821;SDS011;55834;50.870;4.606;2023-05-10T07:31:47;4.07;;;2.15;;
68821;SDS011;55834;50.870;4.606;2023-05-10T07:34:13;5.17;;;3.27;;
68821;SDS011;55834;50.870;4.606;2023-05-10T07:36:38;4.40;;;2.33;;
68821;SDS011;55834;50.870;4.606;2023-05-10T07:39:04;2.63;;;2.27;;
68821;SDS011;55834;50.870;4.606;2023-05-10T07:41:29;5.03;;;2.97;;
68821;SDS011;55834;50.870;4.606;2023-05-10T07:43:55;6.37;;;3.73;;
68821;SDS011;55834;50.870;4.606;2023-05-10T07:46:20;7.87;;;3.60;;
68821;SDS011;55834;50.870;4.606;2023-05-10T07:48:45;6.43;;;3.43;;
68821;SDS011;55834;50.870;4.606;2023-05-10T07:51:11;6.53;;;3.72;;
68821;SDS011;55834;50.870;4.606;2023-05-10T07:53:37;6.10;;;3.75;;
68821;SDS011;55834;50.870;4.606;2023-05-10T07:56:19;10.00;;;4.70;;
68821;SDS011;55834;50.870;4.606;2023-05-10T07:58:47;7.88;;;4.15;;
68821;SDS011;55834;50.870;4.606;2023-05-10T08:01:13;7.63;;;4.15;;
68821;SDS011;55834;50.870;4.606;2023-05-10T08:03:38;5.97;;;4.40;;
68821;SDS011;55834;50.870;4.606;2023-05-10T08:06:04;7.53;;;4.23;;
68821;SDS011;55834;50.870;4.606;2023-05-10T08:08:29;7.88;;;4.55;;
68821;SDS011;55834;50.870;4.606;2023-05-10T08:10:55;13.20;;;5.43;;
68821;SDS011;55834;50.870;4.606;2023-05-10T08:13:20;9.67;;;5.47;;
68821;SDS011;55834;50.870;4.606;2023-05-10T08:15:46;7.53;;;4.47;;
68821;SDS011;55834;50.870;4.606;2023-05-10T08:18:12;8.80;;;4.50;;
68821;SDS011;55834;50.870;4.606;2023-05-10T08:20:37;7.93;;;5.13;;
68821;SDS011;55834;50.870;4.606;2023-05-10T08:23:03;7.03;;;4.90;;
68821;SDS011;55834;50.870;4.606;2023-05-10T08:25:28;10.02;;;5.00;;
68821;SDS011;55834;50.870;4.606;2023-05-10T08:27:53;8.00;;;4.60;;
68821;SDS011;55834;50.870;4.606;2023-05-10T08:30:19;7.88;;;4.47;;
68821;SDS011;55834;50.870;4.606;2023-05-10T08:32:44;7.93;;;4.32;;
68821;SDS011;55834;50.870;4.606;2023-05-10T08:35:10;7.03;;;4.47;;
68821;SDS011;55834;50.870;4.606;2023-05-10T08:37:35;8.13;;;4.33;;
68821;SDS011;55834;50.870;4.606;2023-05-10T08:40:00;6.70;;;4.32;;
68821;SDS011;55834;50.870;4.606;2023-05-10T08:42:27;7.57;;;4.07;;
68821;SDS011;55834;50.870;4.606;2023-05-10T08:44:55;6.50;;;4.28;;
68821;SDS011;55834;50.870;4.606;2023-05-10T08:47:22;6.75;;;3.88;;
68821;SDS011;55834;50.870;4.606;2023-05-10T08:49:48;6.75;;;5.60;;
68821;SDS011;55834;50.870;4.606;2023-05-10T08:52:16;10.27;;;6.20;;
68821;SDS011;55834;50.870;4.606;2023-05-10T08:54:42;8.77;;;4.90;;
68821;SDS011;55834;50.870;4.606;2023-05-10T08:57:08;6.07;;;3.30;;
68821;SDS011;55834;50.870;4.606;2023-05-10T08:59:35;5.85;;;3.70;;
68821;SDS011;55834;50.870;4.606;2023-05-10T09:02:00;9.57;;;4.45;;
68821;SDS011;55834;50.870;4.606;2023-05-10T09:04:27;6.82;;;4.47;;
68821;SDS011;55834;50.870;4.606;2023-05-10T09:06:53;7.55;;;4.28;;
68821;SDS011;55834;50.870;4.606;2023-05-10T09:09:19;5.68;;;3.78;;
68821;SDS011;55834;50.870;4.606;2023-05-10T09:11:46;7.55;;;4.47;;
68821;SDS011;55834;50.870;4.606;2023-05-10T09:14:12;6.20;;;3.13;;
68821;SDS011;55834;50.870;4.606;2023-05-10T09:16:38;5.95;;;3.65;;
68821;SDS011;55834;50.870;4.606;2023-05-10T09:19:04;6.10;;;3.53;;
68821;SDS011;55834;50.870;4.606;2023-05-10T09:21:31;8.18;;;4.07;;
68821;SDS011;55834;50.870;4.606;2023-05-10T09:24:02;6.38;;;3.70;;
68821;SDS011;55834;50.870;4.606;2023-05-10T09:26:28;5.97;;;3.53;;
68821;SDS011;55834;50.870;4.606;2023-05-10T09:28:54;7.27;;;3.67;;
68821;SDS011;55834;50.870;4.606;2023-05-10T09:31:21;5.38;;;3.47;;
68821;SDS011;55834;50.870;4.606;2023-05-10T09:33:47;4.85;;;3.47;;
68821;SDS011;55834;50.870;4.606;2023-05-10T09:36:13;5.95;;;2.97;;
68821;SDS011;55834;50.870;4.606;2023-05-10T09:38:46;3.70;;;2.78;;
68821;SDS011;55834;50.870;4.606;2023-05-10T09:41:20;6.57;;;2.65;;
68821;SDS011;55834;50.870;4.606;2023-05-10T09:46:12;5.13;;;2.70;;
68821;SDS011;55834;50.870;4.606;2023-05-10T09:48:40;4.13;;;2.45;;
68821;SDS011;55834;50.870;4.606;2023-05-10T09:51:19;3.03;;;2.72;;
68821;SDS011;55834;50.870;4.606;2023-05-10T09:53:48;3.47;;;1.92;;
68821;SDS011;55834;50.870;4.606;2023-05-10T09:56:33;6.22;;;3.60;;
68821;SDS011;55834;50.870;4.606;2023-05-10T09:59:04;2.67;;;2.28;;
68821;SDS011;55834;50.870;4.606;2023-05-10T10:01:30;5.72;;;2.95;;
68821;SDS011;55834;50.870;4.606;2023-05-10T10:03:56;4.15;;;2.70;;
68821;SDS011;55834;50.870;4.606;2023-05-10T10:06:23;3.03;;;2.45;;
68821;SDS011;55834;50.870;4.606;2023-05-10T10:08:48;3.58;;;2.22;;
68821;SDS011;55834;50.870;4.606;2023-05-10T10:11:15;4.22;;;2.70;;
68821;SDS011;55834;50.870;4.606;2023-05-10T10:13:41;3.08;;;2.65;;
68821;SDS011;55834;50.870;4.606;2023-05-10T10:16:07;3.30;;;2.10;;
68821;SDS011;55834;50.870;4.606;2023-05-10T10:18:33;4.50;;;2.20;;
68821;SDS011;55834;50.870;4.606;2023-05-10T10:21:04;3.15;;;2.40;;
68821;SDS011;55834;50.870;4.606;2023-05-10T10:23:31;3.15;;;2.08;;
68821;SDS011;55834;50.870;4.606;2023-05-10T10:25:57;2.05;;;1.75;;
68821;SDS011;55834;50.870;4.606;2023-05-10T10:28:29;2.10;;;1.50;;
68821;SDS011;55834;50.870;4.606;2023-05-10T10:31:26;1.90;;;1.50;;
68821;SDS011;55834;50.870;4.606;2023-05-10T10:34:10;1.98;;;1.65;;
68821;SDS011;55834;50.870;4.606;2023-05-10T10:36:47;3.92;;;1.73;;
68821;SDS011;55834;50.870;4.606;2023-05-10T10:39:13;1.77;;;1.30;;
68821;SDS011;55834;50.870;4.606;2023-05-10T10:41:40;1.45;;;1.25;;
68821;SDS011;55834;50.870;4.606;2023-05-10T10:44:23;4.55;;;3.10;;
68821;SDS011;55834;50.870;4.606;2023-05-10T10:52:21;3.72;;;2.22;;
68821;SDS011;55834;50.870;4.606;2023-05-10T10:54:53;2.17;;;1.60;;
68821;SDS011;55834;50.870;4.606;2023-05-10T10:57:22;3.83;;;1.52;;
68821;SDS011;55834;50.870;4.606;2023-05-10T10:59:47;3.17;;;2.75;;
68821;SDS011;55834;50.870;4.606;2023-05-10T11:02:32;1.38;;;1.25;;
68821;SDS011;55834;50.870;4.606;2023-05-10T11:07:55;3.67;;;2.95;;
68821;SDS011;55834;50.870;4.606;2023-05-10T11:10:25;3.38;;;2.65;;
68821;SDS011;55834;50.870;4.606;2023-05-10T11:13:04;1.40;;;1.27;;
68821;SDS011;55834;50.870;4.606;2023-05-10T11:15:31;1.60;;;1.50;;
68821;SDS011;55834;50.870;4.606;2023-05-10T11:17:58;1.52;;;1.42;;
68821;SDS011;55834;50.870;4.606;2023-05-10T11:20:26;4.00;;;1.33;;
68821;SDS011;55834;50.870;4.606;2023-05-10T11:22:58;1.63;;;1.27;;
68821;SDS011;55834;50.870;4.606;2023-05-10T11:25:35;1.65;;;1.45;;
68821;SDS011;55834;50.870;4.606;2023-05-10T11:28:06;2.00;;;1.58;;
68821;SDS011;55834;50.870;4.606;2023-05-10T11:30:32;2.00;;;1.90;;
68821;SDS011;55834;50.870;4.606;2023-05-10T11:32:57;1.47;;;1.37;;
68821;SDS011;55834;50.870;4.606;2023-05-10T11:35:23;2.27;;;1.57;;
68821;SDS011;55834;50.870;4.606;2023-05-10T11:37:48;2.53;;;2.33;;
68821;SDS011;55834;50.870;4.606;2023-05-10T11:40:13;1.83;;;1.60;;
68821;SDS011;55834;50.870;4.606;2023-05-10T11:42:39;2.17;;;1.98;;
68821;SDS011;55834;50.870;4.606;2023-05-10T11:45:05;2.58;;;1.90;;
68821;SDS011;55834;50.870;4.606;2023-05-10T11:47:31;2.88;;;1.85;;
68821;SDS011;55834;50.870;4.606;2023-05-10T11:49:57;2.53;;;2.28;;
68821;SDS011;55834;50.870;4.606;2023-05-10T11:52:22;1.60;;;1.50;;
68821;SDS011;55834;50.870;4.606;2023-05-10T11:54:52;2.30;;;1.50;;
68821;SDS011;55834;50.870;4.606;2023-05-10T11:57:25;2.22;;;1.60;;
68821;SDS011;55834;50.870;4.606;2023-05-10T11:59:53;2.25;;;2.00;;
68821;SDS011;55834;50.870;4.606;2023-05-10T12:02:19;2.80;;;1.83;;
68821;SDS011;55834;50.870;4.606;2023-05-10T12:04:45;2.03;;;1.80;;
68821;SDS011;55834;50.870;4.606;2023-05-10T12:07:11;3.47;;;1.98;;
68821;SDS011;55834;50.870;4.606;2023-05-10T12:09:37;2.78;;;2.00;;
68821;SDS011;55834;50.870;4.606;2023-05-10T12:12:06;4.75;;;2.03;;
68821;SDS011;55834;50.870;4.606;2023-05-10T12:14:34;2.53;;;2.33;;
68821;SDS011;55834;50.870;4.606;2023-05-10T12:17:00;2.22;;;2.03;;
68821;SDS011;55834;50.870;4.606;2023-05-10T12:19:26;2.33;;;2.13;;
68821;SDS011;55834;50.870;4.606;2023-05-10T12:21:51;3.13;;;2.08;;
68821;SDS011;55834;50.870;4.606;2023-05-10T12:24:16;2.83;;;1.60;;
68821;SDS011;55834;50.870;4.606;2023-05-10T12:26:43;2.13;;;1.90;;
68821;SDS011;55834;50.870;4.606;2023-05-10T12:29:19;2.28;;;2.08;;
68821;SDS011;55834;50.870;4.606;2023-05-10T12:32:18;3.17;;;1.92;;
68821;SDS011;55834;50.870;4.606;2023-05-10T12:34:36;2.40;;;1.50;;
68821;SDS011;55834;50.870;4.606;2023-05-10T12:37:03;1.55;;;1.45;;
68821;SDS011;55834;50.870;4.606;2023-05-10T12:39:42;2.65;;;1.90;;
68821;SDS011;55834;50.870;4.606;2023-05-10T12:44:34;2.60;;;1.85;;
68821;SDS011;55834;50.870;4.606;2023-05-10T12:46:59;2.03;;;1.83;;
68821;SDS011;55834;50.870;4.606;2023-05-10T12:49:25;1.53;;;1.37;;
68821;SDS011;55834;50.870;4.606;2023-05-10T12:51:50;2.20;;;1.47;;
68821;SDS011;55834;50.870;4.606;2023-05-10T12:54:15;1.53;;;1.33;;
68821;SDS011;55834;50.870;4.606;2023-05-10T12:56:41;2.80;;;2.47;;
68821;SDS011;55834;50.870;4.606;2023-05-10T12:59:07;1.52;;;1.40;;
68821;SDS011;55834;50.870;4.606;2023-05-10T13:01:33;2.33;;;1.67;;
68821;SDS011;55834;50.870;4.606;2023-05-10T13:03:58;2.35;;;2.08;;
68821;SDS011;55834;50.870;4.606;2023-05-10T13:06:25;2.10;;;1.80;;
68821;SDS011;55834;50.870;4.606;2023-05-10T13:08:50;1.95;;;1.45;;
68821;SDS011;55834;50.870;4.606;2023-05-10T13:11:16;1.38;;;1.25;;
68821;SDS011;55834;50.870;4.606;2023-05-10T13:13:42;1.80;;;1.65;;
68821;SDS011;55834;50.870;4.606;2023-05-10T13:16:08;3.50;;;1.70;;
68821;SDS011;55834;50.870;4.606;2023-05-10T13:18:33;1.60;;;1.50;;
68821;SDS011;55834;50.870;4.606;2023-05-10T13:20:58;1.67;;;1.57;;
68821;SDS011;55834;50.870;4.606;2023-05-10T13:23:24;2.00;;;1.67;;
68821;SDS011;55834;50.870;4.606;2023-05-10T13:25:49;1.90;;;1.60;;
68821;SDS011;55834;50.870;4.606;2023-05-10T13:28:15;2.38;;;1.80;;
68821;SDS011;55834;50.870;4.606;2023-05-10T13:30:40;2.07;;;1.70;;
68821;SDS011;55834;50.870;4.606;2023-05-10T13:33:05;1.80;;;1.70;;
68821;SDS011;55834;50.870;4.606;2023-05-10T13:35:31;1.92;;;1.67;;
68821;SDS011;55834;50.870;4.606;2023-05-10T13:37:56;2.00;;;1.80;;
68821;SDS011;55834;50.870;4.606;2023-05-10T13:40:22;1.77;;;1.65;;
68821;SDS011;55834;50.870;4.606;2023-05-10T13:42:50;2.10;;;1.73;;
68821;SDS011;55834;50.870;4.606;2023-05-10T13:45:15;1.67;;;1.58;;
68821;SDS011;55834;50.870;4.606;2023-05-10T13:47:41;2.22;;;1.90;;
68821;SDS011;55834;50.870;4.606;2023-05-10T13:50:06;2.47;;;1.60;;
68821;SDS011;55834;50.870;4.606;2023-05-10T13:52:32;2.28;;;1.60;;
68821;SDS011;55834;50.870;4.606;2023-05-10T13:54:57;2.33;;;1.88;;
68821;SDS011;55834;50.870;4.606;2023-05-10T13:57:23;2.55;;;1.88;;
68821;SDS011;55834;50.870;4.606;2023-05-10T13:59:49;2.20;;;2.00;;
68821;SDS011;55834;50.870;4.606;2023-05-10T14:02:15;3.28;;;2.17;;
68821;SDS011;55834;50.870;4.606;2023-05-10T14:04:40;8.05;;;2.35;;
68821;SDS011;55834;50.870;4.606;2023-05-10T14:07:06;2.75;;;2.05;;
68821;SDS011;55834;50.870;4.606;2023-05-10T14:09:31;2.20;;;1.85;;
68821;SDS011;55834;50.870;4.606;2023-05-10T14:11:57;1.83;;;1.73;;
68821;SDS011;55834;50.870;4.606;2023-05-10T14:14:22;2.88;;;2.35;;
68821;SDS011;55834;50.870;4.606;2023-05-10T14:16:48;1.98;;;1.88;;
68821;SDS011;55834;50.870;4.606;2023-05-10T14:19:13;4.68;;;2.65;;
68821;SDS011;55834;50.870;4.606;2023-05-10T14:21:39;2.78;;;2.30;;
68821;SDS011;55834;50.870;4.606;2023-05-10T14:24:04;2.47;;;2.22;;
68821;SDS011;55834;50.870;4.606;2023-05-10T14:26:31;2.60;;;2.13;;
68821;SDS011;55834;50.870;4.606;2023-05-10T14:28:57;2.65;;;2.40;;
68821;SDS011;55834;50.870;4.606;2023-05-10T14:31:22;3.75;;;2.05;;
68821;SDS011;55834;50.870;4.606;2023-05-10T14:33:49;2.63;;;2.38;;
68821;SDS011;55834;50.870;4.606;2023-05-10T14:36:15;4.28;;;2.30;;
68821;SDS011;55834;50.870;4.606;2023-05-10T14:38:40;3.33;;;2.35;;
68821;SDS011;55834;50.870;4.606;2023-05-10T14:41:06;3.17;;;2.88;;
68821;SDS011;55834;50.870;4.606;2023-05-10T14:43:32;2.45;;;2.20;;
68821;SDS011;55834;50.870;4.606;2023-05-10T14:45:57;3.80;;;2.28;;
68821;SDS011;55834;50.870;4.606;2023-05-10T14:48:23;2.00;;;1.90;;
68821;SDS011;55834;50.870;4.606;2023-05-10T14:50:48;3.25;;;2.40;;
68821;SDS011;55834;50.870;4.606;2023-05-10T14:53:15;3.17;;;2.22;;
68821;SDS011;55834;50.870;4.606;2023-05-10T14:55:40;4.15;;;2.42;;
68821;SDS011;55834;50.870;4.606;2023-05-10T14:58:06;4.32;;;3.15;;
68821;SDS011;55834;50.870;4.606;2023-05-10T15:00:31;6.50;;;3.10;;
68821;SDS011;55834;50.870;4.606;2023-05-10T15:02:57;4.25;;;2.83;;
68821;SDS011;55834;50.870;4.606;2023-05-10T15:05:22;7.60;;;3.30;;
68821;SDS011;55834;50.870;4.606;2023-05-10T15:07:48;5.78;;;3.92;;
68821;SDS011;55834;50.870;4.606;2023-05-10T15:10:14;5.88;;;3.13;;
68821;SDS011;55834;50.870;4.606;2023-05-10T15:12:39;5.13;;;3.25;;
68821;SDS011;55834;50.870;4.606;2023-05-10T15:15:05;5.63;;;3.50;;
68821;SDS011;55834;50.870;4.606;2023-05-10T15:17:31;4.65;;;3.60;;
68821;SDS011;55834;50.870;4.606;2023-05-10T15:19:57;6.82;;;4.55;;